createdAt,value
2019-04-23T00:00:14.038Z,58.54
2019-04-23T00:03:21.060Z,58.39
2019-04-23T00:06:36.498Z,58.14
2019-04-23T00:09:40.958Z,58.79
2019-04-23T00:12:47.801Z,59.03
2019-04-23T00:16:24.862Z,58.86
2019-04-23T00:19:16.969Z,59.16
2019-04-23T00:22:53.347Z,59.60
2019-04-23T00:26:10.610Z,59.24
2019-04-23T00:29:32.622Z,59.40
2019-04-23T00:35:41.684Z,59.23
2019-04-23T00:38:44.720Z,59.58
2019-04-23T00:41:57.436Z,60.09
2019-04-23T00:45:00.307Z,59.73
2019-04-23T00:48:15.039Z,60.22
2019-04-23T00:51:18.863Z,59.99
2019-04-23T00:54:32.666Z,60.28
2019-04-23T00:57:43.958Z,60.23
2019-04-23T01:00:55.731Z,59.47
2019-04-23T01:03:55.114Z,60.90
2019-04-23T01:07:06.941Z,61.16
2019-04-23T01:10:19.961Z,61.25
2019-04-23T01:13:40.074Z,61.29
2019-04-23T01:16:32.869Z,60.63
2019-04-23T01:19:57.737Z,61.20
2019-04-23T01:22:46.431Z,61.37
2019-04-23T01:26:02.054Z,60.72
2019-04-23T01:29:29.186Z,60.62
2019-04-23T01:32:38.262Z,60.74
2019-04-23T01:35:55.193Z,61.25
2019-04-23T01:38:58.521Z,61.37
2019-04-23T01:42:08.487Z,61.62
2019-04-23T01:45:14.960Z,61.51
2019-04-23T01:48:13.183Z,61.38
2019-04-23T01:51:32.338Z,62.18
2019-04-23T01:54:38.235Z,61.78
2019-04-23T01:57:46.924Z,61.82
2019-04-23T02:01:08.686Z,61.95
2019-04-23T02:04:04.859Z,61.68
2019-04-23T02:07:15.499Z,62.00
2019-04-23T02:10:20.536Z,62.46
2019-04-23T02:13:32.363Z,62.63
2019-04-23T02:16:39.132Z,62.03
2019-04-23T02:19:46.739Z,62.49
2019-04-23T02:23:04.870Z,62.08
2019-04-23T02:26:05.910Z,62.87
2019-04-23T02:32:31.812Z,62.75
2019-04-23T02:35:50.670Z,62.88
2019-04-23T02:45:04.728Z,62.29
2019-04-23T02:51:21.652Z,62.49
2019-04-23T02:57:36.998Z,62.56
2019-04-23T03:01:03.623Z,62.76
2019-04-23T03:10:08.191Z,62.50
2019-04-23T03:13:31.774Z,62.64
2019-04-23T03:16:49.919Z,62.69
2019-04-23T03:20:15.810Z,63.93
2019-04-23T03:29:43.427Z,63.11
2019-04-23T03:32:51.890Z,63.75
2019-04-23T03:38:52.008Z,63.42
2019-04-23T03:42:24.723Z,63.73
2019-04-23T03:48:32.302Z,63.69
2019-04-23T03:51:34.130Z,63.50
2019-04-23T03:54:58.276Z,64.36
2019-04-23T03:57:47.380Z,63.99
2019-04-23T04:01:07.259Z,64.33
2019-04-23T04:04:31.862Z,64.65
2019-04-23T04:10:25.641Z,64.50
2019-04-23T04:13:40.229Z,64.21
2019-04-23T04:19:56.917Z,65.38
2019-04-23T04:23:07.860Z,64.48
2019-04-23T04:26:09.548Z,65.02
2019-04-23T04:32:17.549Z,65.82
2019-04-23T04:35:38.256Z,65.05
2019-04-23T04:42:06.218Z,65.02
2019-04-23T04:45:07.492Z,64.78
2019-04-23T04:48:02.581Z,65.38
2019-04-23T04:51:18.863Z,64.83
2019-04-23T04:57:36.500Z,65.00
2019-04-23T05:04:00.318Z,65.27
2019-04-23T05:07:02.613Z,64.57
2019-04-23T05:16:19.300Z,64.44
2019-04-23T05:19:35.331Z,64.65
2019-04-23T05:22:49.325Z,64.24
2019-04-23T05:25:44.971Z,64.37
2019-04-23T05:32:02.873Z,64.13
2019-04-23T05:35:10.009Z,64.61
2019-04-23T05:38:30.849Z,63.96
2019-04-23T05:44:50.198Z,64.00
2019-04-23T05:47:47.058Z,64.06
2019-04-23T05:50:59.161Z,63.29
2019-04-23T05:53:58.432Z,63.44
2019-04-23T05:57:06.901Z,63.90
2019-04-23T06:00:19.324Z,63.54
2019-04-23T06:03:24.454Z,63.23
2019-04-23T06:09:39.359Z,63.20
2019-04-23T06:12:56.061Z,63.08
2019-04-23T06:16:01.386Z,63.01
2019-04-23T06:19:08.003Z,62.13
2019-04-23T06:22:26.874Z,62.40
2019-04-23T06:25:42.099Z,61.63
2019-04-23T06:31:45.982Z,62.29
2019-04-23T06:34:50.170Z,62.83
2019-04-23T06:41:09.972Z,62.13
2019-04-23T06:47:24.858Z,61.65
2019-04-23T06:50:47.632Z,61.98
2019-04-23T06:53:43.099Z,61.49
2019-04-23T06:57:05.096Z,61.63
2019-04-23T07:00:19.771Z,61.86
2019-04-23T07:03:14.860Z,61.64
2019-04-23T07:06:25.015Z,61.18
2019-04-23T07:09:20.636Z,61.46
2019-04-23T07:12:38.916Z,61.03
2019-04-23T07:15:45.851Z,61.58
2019-04-23T07:19:12.798Z,60.98
2019-04-23T07:22:08.209Z,61.18
2019-04-23T07:25:08.404Z,60.64
2019-04-23T07:28:17.953Z,60.33
2019-04-23T07:31:44.610Z,60.58
2019-04-23T07:34:31.815Z,60.90
2019-04-23T07:37:47.473Z,60.38
2019-04-23T07:40:48.220Z,60.70
2019-04-23T07:44:18.907Z,60.62
2019-04-23T07:47:21.749Z,60.62
2019-04-23T07:53:39.988Z,60.05
2019-04-23T07:56:54.272Z,59.64
2019-04-23T07:59:54.448Z,59.72
2019-04-23T08:03:14.294Z,59.84
2019-04-23T08:06:10.092Z,59.75
2019-04-23T08:09:17.414Z,59.67
2019-04-23T08:12:32.007Z,59.64
2019-04-23T08:15:38.104Z,59.31
2019-04-23T08:18:49.236Z,59.07
2019-04-23T08:21:58.240Z,58.57
2019-04-23T08:25:17.821Z,59.37
2019-04-23T08:32:00.649Z,58.74
2019-04-23T08:38:12.313Z,57.86
2019-04-23T08:41:14.276Z,57.51
2019-04-23T08:44:21.594Z,57.34
2019-04-23T08:47:26.254Z,57.65
2019-04-23T08:50:40.799Z,57.53
2019-04-23T08:53:40.990Z,57.22
2019-04-23T08:56:55.060Z,56.61
2019-04-23T08:59:56.074Z,57.89
2019-04-23T09:03:11.202Z,57.17
2019-04-23T09:09:27.486Z,56.65
2019-04-23T09:12:36.661Z,56.69
2019-04-23T09:15:44.539Z,55.87
2019-04-23T09:18:47.306Z,56.52
2019-04-23T09:22:03.834Z,56.67
2019-04-23T09:25:14.752Z,55.93
2019-04-23T09:28:21.137Z,55.41
2019-04-23T09:32:02.305Z,54.94
2019-04-23T09:35:02.509Z,55.68
2019-04-23T09:38:23.730Z,55.43
2019-04-23T09:41:31.197Z,55.75
2019-04-23T09:48:26.598Z,54.30
2019-04-23T09:51:27.796Z,54.96
2019-04-23T09:54:34.266Z,54.78
2019-04-23T09:57:46.501Z,54.02
2019-04-23T10:01:00.887Z,53.49
2019-04-23T10:03:47.818Z,54.31
2019-04-23T10:06:56.348Z,53.35
2019-04-23T10:09:49.829Z,54.80
2019-04-23T10:12:58.144Z,54.89
2019-04-23T10:16:06.912Z,55.11
2019-04-23T10:19:15.174Z,54.78
2019-04-23T10:22:23.048Z,55.21
2019-04-23T10:25:30.189Z,55.30
2019-04-23T10:28:45.606Z,55.85
2019-04-23T10:31:53.464Z,55.02
2019-04-23T10:35:10.329Z,54.55
2019-04-23T10:38:14.272Z,54.64
2019-04-23T10:41:18.344Z,55.10
2019-04-23T10:44:44.362Z,53.27
2019-04-23T10:51:51.638Z,54.21
2019-04-23T10:55:03.000Z,53.33
2019-04-23T10:58:08.465Z,52.01
2019-04-23T11:01:36.312Z,52.04
2019-04-23T11:04:44.742Z,52.21
2019-04-23T11:10:44.284Z,52.31
2019-04-23T11:13:54.884Z,52.66
2019-04-23T11:17:04.270Z,51.75
2019-04-23T11:20:16.984Z,51.71
2019-04-23T11:23:12.707Z,52.14
2019-04-23T11:29:40.859Z,52.89
2019-04-23T11:36:02.454Z,52.24
2019-04-23T11:42:14.464Z,51.04
2019-04-23T11:45:24.853Z,50.99
2019-04-23T11:51:46.056Z,49.92
2019-04-23T11:57:59.233Z,50.42
2019-04-23T12:04:48.066Z,48.77
2019-04-23T12:08:17.492Z,50.41
2019-04-23T12:14:46.824Z,48.95
2019-04-23T12:18:00.449Z,47.07
2019-04-23T12:21:20.084Z,47.60
2019-04-23T12:24:42.063Z,48.21
2019-04-23T12:27:31.373Z,49.51
2019-04-23T12:30:50.694Z,48.31
2019-04-23T12:33:53.626Z,47.15
2019-04-23T12:36:54.609Z,48.89
2019-04-23T12:43:12.938Z,47.87
2019-04-23T12:46:24.076Z,46.95
2019-04-23T12:52:35.865Z,48.69
2019-04-23T12:58:46.438Z,47.42
2019-04-23T13:02:29.128Z,46.92
2019-04-23T13:05:12.442Z,47.44
2019-04-23T13:08:26.832Z,46.00
2019-04-23T13:11:30.188Z,47.27
2019-04-23T13:14:41.723Z,47.73
2019-04-23T13:17:50.365Z,47.21
2019-04-23T13:20:51.368Z,47.61
2019-04-23T13:24:15.688Z,47.39
2019-04-23T13:27:28.994Z,47.04
2019-04-23T13:33:47.125Z,46.83
2019-04-23T13:37:05.197Z,47.64
2019-04-23T13:40:09.268Z,47.39
2019-04-23T13:46:20.055Z,47.29
2019-04-23T13:49:33.312Z,46.61
2019-04-23T13:55:49.923Z,47.04
2019-04-23T13:59:09.494Z,46.44
2019-04-23T14:02:24.058Z,46.46
2019-04-23T14:05:28.234Z,46.30
2019-04-23T14:11:54.975Z,48.03
2019-04-23T14:15:12.859Z,47.13
2019-04-23T14:18:29.099Z,47.47
2019-04-23T14:27:26.910Z,46.54
2019-04-23T14:33:58.031Z,47.23
2019-04-23T14:36:57.783Z,47.43
2019-04-23T14:40:22.216Z,47.86
2019-04-23T14:43:25.765Z,47.08
2019-04-23T14:46:41.278Z,46.60
2019-04-23T14:49:58.818Z,46.76
2019-04-23T14:52:56.945Z,47.52
2019-04-23T14:59:19.806Z,47.79
2019-04-23T15:02:28.779Z,47.22
2019-04-23T15:05:33.933Z,47.04
2019-04-23T15:15:06.321Z,47.89
2019-04-23T15:18:13.195Z,49.08
2019-04-23T15:27:35.965Z,48.53
2019-04-23T15:30:47.358Z,48.61
2019-04-23T15:34:03.763Z,48.61
2019-04-23T15:37:20.325Z,50.12
2019-04-23T15:43:17.223Z,49.86
2019-04-23T15:46:32.704Z,49.71
2019-04-23T15:49:35.335Z,49.66
2019-04-23T15:52:54.419Z,50.26
2019-04-23T15:55:59.465Z,50.16
2019-04-23T15:59:19.116Z,50.38
2019-04-23T16:01:43.887Z,50.89
2019-04-23T16:04:51.262Z,51.05
2019-04-23T16:08:25.918Z,51.14
2019-04-23T16:11:44.158Z,51.20
2019-04-23T16:15:06.562Z,51.71
2019-04-23T16:18:26.478Z,51.62
2019-04-23T16:21:29.189Z,52.15
2019-04-23T16:24:22.255Z,52.55
2019-04-23T16:27:34.807Z,53.05
2019-04-23T16:30:59.565Z,52.71
2019-04-23T16:34:19.475Z,52.87
2019-04-23T16:37:20.042Z,53.32
2019-04-23T16:40:36.291Z,53.47
2019-04-23T16:43:40.863Z,54.03
2019-04-23T16:46:54.218Z,54.50
2019-04-23T16:50:04.977Z,54.49
2019-04-23T16:53:11.549Z,54.58
2019-04-23T16:56:18.373Z,55.23
2019-04-23T17:05:40.947Z,56.22
2019-04-23T17:09:03.581Z,56.17
2019-04-23T17:15:17.784Z,57.62
2019-04-23T17:24:48.852Z,58.60
2019-04-23T17:28:07.161Z,58.35
2019-04-23T17:31:26.242Z,58.56
2019-04-23T17:34:24.341Z,58.96
2019-04-23T17:37:29.908Z,59.19
2019-04-23T17:40:42.654Z,59.42
2019-04-23T17:44:00.230Z,60.17
2019-04-23T17:47:20.446Z,60.47
2019-04-23T17:50:28.638Z,60.83
2019-04-23T17:53:42.533Z,61.14
2019-04-23T17:56:58.188Z,61.65
2019-04-23T18:00:10.015Z,61.87
2019-04-23T18:03:10.085Z,61.77
2019-04-23T18:06:21.387Z,62.84
2019-04-23T18:09:18.450Z,63.10
2019-04-23T18:12:39.173Z,63.55
2019-04-23T18:15:41.922Z,63.57
2019-04-23T18:25:26.159Z,64.72
2019-04-23T18:28:39.983Z,64.39
2019-04-23T18:35:15.506Z,65.96
2019-04-23T18:41:13.658Z,65.92
2019-04-23T18:44:36.377Z,65.46
2019-04-23T18:47:50.382Z,66.01
2019-04-23T18:57:13.041Z,67.73
2019-04-23T19:00:18.773Z,67.42
2019-04-23T19:03:37.571Z,67.04
2019-04-23T19:06:34.428Z,67.85
2019-04-23T19:13:35.662Z,67.41
2019-04-23T19:16:36.120Z,67.70
2019-04-23T19:19:40.397Z,67.57
2019-04-23T19:22:55.029Z,67.67
2019-04-23T19:25:51.448Z,68.42
2019-04-23T19:32:06.381Z,68.58
2019-04-23T19:35:43.901Z,68.88
2019-04-23T19:44:52.063Z,69.12
2019-04-23T19:48:09.356Z,69.45
2019-04-23T19:51:10.558Z,69.37
2019-04-23T19:54:25.193Z,69.73
2019-04-23T19:57:33.623Z,69.19
2019-04-23T20:00:55.419Z,69.84
2019-04-23T20:03:57.638Z,69.17
2019-04-23T20:07:12.364Z,69.84
2019-04-23T20:10:30.457Z,69.34
2019-04-23T20:13:19.331Z,70.26
2019-04-23T20:22:50.187Z,70.92
2019-04-23T20:32:05.779Z,70.58
2019-04-23T20:35:52.328Z,70.77
2019-04-23T20:39:02.610Z,71.02
2019-04-23T20:42:10.988Z,71.27
2019-04-23T20:45:16.515Z,71.26
2019-04-23T20:48:25.905Z,71.83
2019-04-23T20:51:33.500Z,71.11
2019-04-23T20:54:50.884Z,70.74
2019-04-23T20:57:45.155Z,71.30
2019-04-23T21:01:33.967Z,71.95
2019-04-23T21:04:44.958Z,71.79
2019-04-23T21:07:54.492Z,71.92
2019-04-23T21:10:43.004Z,72.38
2019-04-23T21:14:12.480Z,72.12
2019-04-23T21:17:04.157Z,73.68
2019-04-23T21:23:37.630Z,72.74
2019-04-23T21:26:39.821Z,73.28
2019-04-23T21:29:44.668Z,72.80
2019-04-23T21:33:15.805Z,73.06
2019-04-23T21:36:18.781Z,72.83
2019-04-23T21:39:40.691Z,72.69
2019-04-23T21:42:55.955Z,72.84
2019-04-23T21:46:11.746Z,73.72
2019-04-23T21:49:25.186Z,74.09
2019-04-23T21:52:11.457Z,73.98
2019-04-23T21:55:36.493Z,73.10
2019-04-23T22:04:52.765Z,73.60
2019-04-23T22:11:39.410Z,73.93
2019-04-23T22:14:16.958Z,73.62
2019-04-23T22:17:25.086Z,73.61
2019-04-23T22:20:34.164Z,73.81
2019-04-23T22:23:52.562Z,73.80
2019-04-23T22:26:45.001Z,74.02
2019-04-23T22:30:11.361Z,73.66
2019-04-23T22:36:15.034Z,73.14
2019-04-23T22:42:54.477Z,73.99
2019-04-23T22:45:43.063Z,74.45
2019-04-23T22:49:09.181Z,74.11
2019-04-23T22:58:09.598Z,73.61
2019-04-23T23:04:41.022Z,73.91
2019-04-23T23:20:26.708Z,75.01
2019-04-23T23:23:23.749Z,75.56
2019-04-23T23:26:54.502Z,75.24
2019-04-23T23:29:53.413Z,74.83
2019-04-23T23:32:57.101Z,75.11
2019-04-23T23:39:16.024Z,73.91
2019-04-23T23:42:18.081Z,74.41
2019-04-23T23:45:25.357Z,74.68
2019-04-23T23:48:35.957Z,73.62
2019-04-23T23:54:52.632Z,73.47
2019-04-23T23:58:11.065Z,72.90
